»·PEaware :: N1248L KEMT-KSEE

N1248L :: KEMT-KSEE

FLIGHT INFORMATION

Flight Status: Arrived
Operator: Privately registered:
United States
More flights under this callsign
Pilot: Anonymous 40054 (40054)
Aircraft: CESSNA 310
(C310)
More flights by this aircraft type
Origin: KEMT El Monte
United States
Destination: KSEE Gillespie
United States
More flights between these airports :: More routes between these airports
Route: PDZ V186 HAILE V66 MZB
File this flight plan on PilotEdge
Remarks:
Altitude:
(Current/Filed)
9,000ft
Speed:
(Current/Filed)
190kts
Departed: 29-Sep-22 04:41 PM
Arrived: 29-Sep-22 05:20 PM
Distance/Time
Traveled:
92nm/0:39
Distance/Time
To Go:
Arrived

Flight Plot

Page will automatically refresh every two minutes.


Map Options




Map Legend


Flown Route
Filed Route
Departure Airport
Arrival Airport
Navaid (VOR, NDB)
Fix

Horizontal Profiles

Position Reports

Time Latitude Longitude Heading Altitude Ground
Speed
29-Sep-22 16:23 34.086220 -118.033008 235 295ft 0kts
29-Sep-22 16:24 34.086220 -118.033008 235 295ft 0kts
29-Sep-22 16:25 34.086220 -118.033007 235 293ft 0kts
29-Sep-22 16:26 34.086220 -118.033007 235 293ft 0kts
29-Sep-22 16:27 34.086220 -118.033007 235 293ft 0kts
29-Sep-22 16:28 34.086220 -118.033007 235 293ft 0kts
29-Sep-22 16:30 34.086220 -118.033007 235 293ft 0kts
29-Sep-22 16:31 34.086220 -118.033007 235 293ft 0kts
29-Sep-22 16:32 34.086220 -118.033007 235 293ft 0kts
29-Sep-22 16:33 34.086220 -118.033007 235 293ft 0kts
29-Sep-22 16:34 34.086220 -118.033007 235 293ft 0kts
29-Sep-22 16:35 34.086220 -118.033007 235 293ft 0kts
29-Sep-22 16:36 34.086220 -118.033007 235 293ft 0kts
29-Sep-22 16:37 34.086220 -118.033007 235 293ft 0kts
29-Sep-22 16:38 34.086220 -118.033007 235 293ft 0kts
29-Sep-22 16:39 34.088350 -118.032881 24 294ft 16kts
29-Sep-22 16:40 34.090550 -118.031626 26 297ft 0kts
29-Sep-22 16:41 34.084764 -118.035560 204 307ft 90kts
29-Sep-22 16:42 34.059725 -118.046932 200 1162ft 102kts
29-Sep-22 16:43 34.040101 -118.038970 79 1964ft 111kts
29-Sep-22 16:44 34.046489 -117.998147 82 2531ft 128kts
29-Sep-22 16:45 34.050762 -117.954991 76 3302ft 128kts
29-Sep-22 16:46 34.051647 -117.911421 105 4054ft 130kts
29-Sep-22 16:47 34.037594 -117.867599 112 4679ft 145kts
29-Sep-22 16:48 34.023308 -117.820221 112 5286ft 160kts
29-Sep-22 16:49 34.005704 -117.768307 117 5756ft 173kts
29-Sep-22 16:50 33.985800 -117.713711 116 5977ft 189kts
29-Sep-22 16:51 33.963825 -117.653696 116 5998ft 204kts
29-Sep-22 16:52 33.941359 -117.592539 115 5950ft 193kts
29-Sep-22 16:53 33.917774 -117.536113 132 5970ft 186kts
29-Sep-22 16:54 33.880635 -117.498383 148 6676ft 169kts
29-Sep-22 16:54 33.849256 -117.472015 149 7200ft 160kts
29-Sep-22 16:55 33.813384 -117.441964 148 7861ft 154kts
29-Sep-22 16:57 33.772963 -117.408150 148 8678ft 148kts
29-Sep-22 16:58 33.737629 -117.378629 148 8994ft 168kts
29-Sep-22 16:58 33.703731 -117.350309 148 8997ft 185kts
29-Sep-22 16:59 33.660445 -117.314187 148 8989ft 193kts
29-Sep-22 17:00 33.616145 -117.277277 148 8990ft 195kts
29-Sep-22 17:01 33.571643 -117.240263 147 8985ft 193kts
29-Sep-22 17:03 33.519992 -117.197348 147 8994ft 193kts
29-Sep-22 17:03 33.482938 -117.167837 158 8998ft 191kts
29-Sep-22 17:04 33.431439 -117.151822 172 9001ft 192kts
29-Sep-22 17:05 33.379009 -117.140641 171 9004ft 190kts
29-Sep-22 17:06 33.324879 -117.129308 172 8401ft 203kts
29-Sep-22 17:07 33.268894 -117.117315 172 7734ft 202kts
29-Sep-22 17:08 33.213790 -117.105778 173 7066ft 200kts
29-Sep-22 17:09 33.158440 -117.102902 180 6415ft 199kts
29-Sep-22 17:10 33.104226 -117.102178 180 5751ft 197kts
29-Sep-22 17:11 33.050241 -117.089571 157 5133ft 201kts
29-Sep-22 17:12 33.002315 -117.059190 153 4205ft 188kts
29-Sep-22 17:13 32.957057 -117.030479 152 3278ft 182kts
29-Sep-22 17:14 32.911600 -117.005400 160 2270ft 176kts
29-Sep-22 17:15 32.870646 -116.987681 161 2017ft 124kts
29-Sep-22 17:16 32.841176 -116.975967 169 1510ft 111kts
29-Sep-22 17:17 32.810929 -116.967182 100 1527ft 127kts
29-Sep-22 17:18 32.819035 -116.945077 303 1085ft 112kts
29-Sep-22 17:19 32.828149 -116.974018 281 370ft 33kts
29-Sep-22 17:20 32.828852 -116.975552 10 370ft 0kts
29-Sep-22 17:21 32.828654 -116.973211 100 368ft 11kts
29-Sep-22 17:22 32.828687 -116.970527 1 370ft 0kts
29-Sep-22 17:23 32.828687 -116.970527 1 370ft 0kts
29-Sep-22 17:24 32.828687 -116.970527 1 370ft 0kts

Navigation Log

Ident Type
Flight plan parsing failed, navigation log unavailable